sensor_id;sensor_type;location;lat;lon;timestamp;pressure;altitude;pressure_sealevel;temperature;humidity
70758;BME280;59316;52.964;7.102;2023-05-09T00:03:33;101757.44;;;15.74;nan
70758;BME280;59316;52.964;7.102;2023-05-09T00:08:54;101748.81;;;15.72;nan
70758;BME280;59316;52.964;7.102;2023-05-09T00:14:16;101747.09;;;15.58;nan
70758;BME280;59316;52.964;7.102;2023-05-09T00:19:37;101736.81;;;15.41;nan
70758;BME280;59316;52.964;7.102;2023-05-09T00:24:59;101738.28;;;15.18;nan
70758;BME280;59316;52.964;7.102;2023-05-09T00:30:20;101718.91;;;15.19;nan
70758;BME280;59316;52.964;7.102;2023-05-09T00:35:42;101712.47;;;15.23;nan
70758;BME280;59316;52.964;7.102;2023-05-09T00:41:04;101698.09;;;15.14;nan
70758;BME280;59316;52.964;7.102;2023-05-09T00:46:25;101697.03;;;15.04;nan
70758;BME280;59316;52.964;7.102;2023-05-09T00:51:47;101693.09;;;14.97;nan
70758;BME280;59316;52.964;7.102;2023-05-09T00:57:09;101685.59;;;14.90;nan
70758;BME280;59316;52.964;7.102;2023-05-09T01:02:30;101687.59;;;14.72;nan
70758;BME280;59316;52.964;7.102;2023-05-09T01:19:08;101668.22;;;14.46;nan
70758;BME280;59316;52.964;7.102;2023-05-09T01:30:19;101646.50;;;14.42;nan
70758;BME280;59316;52.964;7.102;2023-05-09T01:35:44;101654.69;;;14.38;nan
70758;BME280;59316;52.964;7.102;2023-05-09T01:41:11;101645.41;;;14.32;nan
70758;BME280;59316;52.964;7.102;2023-05-09T01:46:36;101639.69;;;14.25;nan
70758;BME280;59316;52.964;7.102;2023-05-09T01:52:00;101633.06;;;14.47;nan
70758;BME280;59316;52.964;7.102;2023-05-09T01:57:26;101630.59;;;14.58;nan
70758;BME280;59316;52.964;7.102;2023-05-09T02:02:50;101626.81;;;14.62;nan
70758;BME280;59316;52.964;7.102;2023-05-09T02:08:13;101616.13;;;14.78;nan
70758;BME280;59316;52.964;7.102;2023-05-09T02:13:36;101621.81;;;15.13;nan
70758;BME280;59316;52.964;7.102;2023-05-09T02:18:58;101622.53;;;15.42;nan
70758;BME280;59316;52.964;7.102;2023-05-09T02:24:20;101625.16;;;15.42;nan
70758;BME280;59316;52.964;7.102;2023-05-09T02:29:45;101620.19;;;15.50;nan
70758;BME280;59316;52.964;7.102;2023-05-09T02:35:08;101610.03;;;15.31;nan
70758;BME280;59316;52.964;7.102;2023-05-09T02:40:33;101609.19;;;15.31;nan
70758;BME280;59316;52.964;7.102;2023-05-09T02:45:54;101599.47;;;15.18;nan
70758;BME280;59316;52.964;7.102;2023-05-09T02:51:16;101600.00;;;15.23;nan
70758;BME280;59316;52.964;7.102;2023-05-09T02:56:37;101602.63;;;15.23;nan
70758;BME280;59316;52.964;7.102;2023-05-09T03:01:58;101598.09;;;15.13;nan
70758;BME280;59316;52.964;7.102;2023-05-09T03:07:20;101594.13;;;15.20;nan
70758;BME280;59316;52.964;7.102;2023-05-09T03:12:42;101579.66;;;15.13;nan
70758;BME280;59316;52.964;7.102;2023-05-09T03:18:04;101572.28;;;15.05;nan
70758;BME280;59316;52.964;7.102;2023-05-09T03:23:26;101580.06;;;15.06;nan
70758;BME280;59316;52.964;7.102;2023-05-09T03:28:47;101565.34;;;15.17;nan
70758;BME280;59316;52.964;7.102;2023-05-09T03:34:09;101562.41;;;15.34;nan
70758;BME280;59316;52.964;7.102;2023-05-09T03:39:30;101566.00;;;15.59;nan
70758;BME280;59316;52.964;7.102;2023-05-09T03:44:52;101560.09;;;15.55;nan
70758;BME280;59316;52.964;7.102;2023-05-09T03:50:15;101563.38;;;15.59;nan
70758;BME280;59316;52.964;7.102;2023-05-09T03:55:37;101551.97;;;15.71;nan
70758;BME280;59316;52.964;7.102;2023-05-09T04:00:59;101538.47;;;15.76;nan
70758;BME280;59316;52.964;7.102;2023-05-09T04:06:21;101541.00;;;15.77;nan
70758;BME280;59316;52.964;7.102;2023-05-09T04:11:42;101537.50;;;15.77;nan
70758;BME280;59316;52.964;7.102;2023-05-09T04:17:05;101531.00;;;15.70;nan
70758;BME280;59316;52.964;7.102;2023-05-09T04:22:27;101528.75;;;15.76;nan
70758;BME280;59316;52.964;7.102;2023-05-09T04:27:49;101525.06;;;15.79;nan
70758;BME280;59316;52.964;7.102;2023-05-09T04:33:10;101528.44;;;15.81;nan
70758;BME280;59316;52.964;7.102;2023-05-09T04:38:32;101536.75;;;15.88;nan
70758;BME280;59316;52.964;7.102;2023-05-09T04:43:55;101523.34;;;15.91;nan
70758;BME280;59316;52.964;7.102;2023-05-09T04:49:18;101520.56;;;16.05;nan
70758;BME280;59316;52.964;7.102;2023-05-09T04:54:40;101513.16;;;16.11;nan
70758;BME280;59316;52.964;7.102;2023-05-09T05:00:01;101505.91;;;16.25;nan
70758;BME280;59316;52.964;7.102;2023-05-09T05:05:23;101501.81;;;16.46;nan
70758;BME280;59316;52.964;7.102;2023-05-09T05:10:46;101501.59;;;16.60;nan
70758;BME280;59316;52.964;7.102;2023-05-09T05:16:08;101493.47;;;16.63;nan
70758;BME280;59316;52.964;7.102;2023-05-09T05:21:31;101505.88;;;16.74;nan
70758;BME280;59316;52.964;7.102;2023-05-09T05:26:53;101506.53;;;16.89;nan
70758;BME280;59316;52.964;7.102;2023-05-09T05:32:15;101499.34;;;17.02;nan
70758;BME280;59316;52.964;7.102;2023-05-09T05:37:40;101498.28;;;17.16;nan
70758;BME280;59316;52.964;7.102;2023-05-09T05:43:02;101490.34;;;17.16;nan
70758;BME280;59316;52.964;7.102;2023-05-09T05:48:25;101474.63;;;17.26;nan
70758;BME280;59316;52.964;7.102;2023-05-09T05:53:47;101477.03;;;17.29;nan
70758;BME280;59316;52.964;7.102;2023-05-09T05:59:09;101473.44;;;17.30;nan
70758;BME280;59316;52.964;7.102;2023-05-09T06:04:32;101465.63;;;17.40;nan
70758;BME280;59316;52.964;7.102;2023-05-09T06:09:54;101463.94;;;17.50;nan
70758;BME280;59316;52.964;7.102;2023-05-09T06:15:16;101454.56;;;17.58;nan
70758;BME280;59316;52.964;7.102;2023-05-09T06:20:41;101454.91;;;17.64;nan
70758;BME280;59316;52.964;7.102;2023-05-09T06:26:03;101454.88;;;17.76;nan
70758;BME280;59316;52.964;7.102;2023-05-09T06:31:24;101435.16;;;17.80;nan
70758;BME280;59316;52.964;7.102;2023-05-09T06:36:46;101423.50;;;17.82;nan
70758;BME280;59316;52.964;7.102;2023-05-09T06:42:07;101424.78;;;17.99;nan
70758;BME280;59316;52.964;7.102;2023-05-09T06:47:32;101418.34;;;18.13;nan
70758;BME280;59316;52.964;7.102;2023-05-09T06:52:53;101418.22;;;18.15;nan
70758;BME280;59316;52.964;7.102;2023-05-09T06:58:15;101407.25;;;18.19;nan
70758;BME280;59316;52.964;7.102;2023-05-09T07:03:36;101399.84;;;18.55;nan
70758;BME280;59316;52.964;7.102;2023-05-09T07:08:58;101388.28;;;19.09;nan
70758;BME280;59316;52.964;7.102;2023-05-09T07:14:19;101376.72;;;19.99;nan
70758;BME280;59316;52.964;7.102;2023-05-09T07:19:41;101370.84;;;20.25;nan
70758;BME280;59316;52.964;7.102;2023-05-09T07:25:03;101370.97;;;20.24;nan
70758;BME280;59316;52.964;7.102;2023-05-09T07:30:25;101371.00;;;19.94;nan
70758;BME280;59316;52.964;7.102;2023-05-09T07:35:47;101368.44;;;19.73;nan
70758;BME280;59316;52.964;7.102;2023-05-09T07:41:09;101356.00;;;19.64;nan
70758;BME280;59316;52.964;7.102;2023-05-09T07:46:30;101360.59;;;19.42;nan
70758;BME280;59316;52.964;7.102;2023-05-09T07:51:52;101362.63;;;19.19;nan
70758;BME280;59316;52.964;7.102;2023-05-09T07:57:13;101359.47;;;18.94;nan
70758;BME280;59316;52.964;7.102;2023-05-09T08:02:35;101355.91;;;18.84;nan
70758;BME280;59316;52.964;7.102;2023-05-09T08:07:56;101347.09;;;18.74;nan
70758;BME280;59316;52.964;7.102;2023-05-09T08:13:18;101336.94;;;18.79;nan
70758;BME280;59316;52.964;7.102;2023-05-09T08:18:40;101325.28;;;18.91;nan
70758;BME280;59316;52.964;7.102;2023-05-09T08:24:01;101316.13;;;19.05;nan
70758;BME280;59316;52.964;7.102;2023-05-09T08:29:23;101311.56;;;19.36;nan
70758;BME280;59316;52.964;7.102;2023-05-09T08:34:44;101314.69;;;19.42;nan
70758;BME280;59316;52.964;7.102;2023-05-09T08:40:06;101311.59;;;19.95;nan
70758;BME280;59316;52.964;7.102;2023-05-09T08:45:29;101291.31;;;20.99;nan
70758;BME280;59316;52.964;7.102;2023-05-09T08:50:51;101295.97;;;21.33;nan
70758;BME280;59316;52.964;7.102;2023-05-09T08:56:14;101291.25;;;21.45;nan
70758;BME280;59316;52.964;7.102;2023-05-09T09:01:36;101291.03;;;21.38;nan
70758;BME280;59316;52.964;7.102;2023-05-09T09:06:58;101281.84;;;21.51;nan
70758;BME280;59316;52.964;7.102;2023-05-09T09:12:21;101281.16;;;21.30;nan
70758;BME280;59316;52.964;7.102;2023-05-09T09:17:47;101265.63;;;21.80;nan
70758;BME280;59316;52.964;7.102;2023-05-09T09:23:11;101254.78;;;22.00;nan
70758;BME280;59316;52.964;7.102;2023-05-09T09:28:37;101251.06;;;22.10;nan
70758;BME280;59316;52.964;7.102;2023-05-09T09:34:00;101258.97;;;21.58;nan
70758;BME280;59316;52.964;7.102;2023-05-09T09:39:22;101252.25;;;21.54;nan
70758;BME280;59316;52.964;7.102;2023-05-09T09:44:43;101241.25;;;21.12;nan
70758;BME280;59316;52.964;7.102;2023-05-09T09:50:12;101235.41;;;20.81;nan
70758;BME280;59316;52.964;7.102;2023-05-09T09:55:35;101238.94;;;20.44;nan
70758;BME280;59316;52.964;7.102;2023-05-09T10:01:11;101239.28;;;20.31;nan
70758;BME280;59316;52.964;7.102;2023-05-09T10:06:33;101233.53;;;20.36;nan
70758;BME280;59316;52.964;7.102;2023-05-09T10:11:55;101229.69;;;20.20;nan
70758;BME280;59316;52.964;7.102;2023-05-09T10:17:18;101224.41;;;20.10;nan
70758;BME280;59316;52.964;7.102;2023-05-09T10:22:41;101231.72;;;19.98;nan
70758;BME280;59316;52.964;7.102;2023-05-09T10:28:08;101223.78;;;19.69;nan
70758;BME280;59316;52.964;7.102;2023-05-09T10:33:46;101215.22;;;19.85;nan
70758;BME280;59316;52.964;7.102;2023-05-09T10:39:08;101204.59;;;20.32;nan
70758;BME280;59316;52.964;7.102;2023-05-09T10:44:30;101198.28;;;20.43;nan
70758;BME280;59316;52.964;7.102;2023-05-09T10:49:53;101189.44;;;20.71;nan
70758;BME280;59316;52.964;7.102;2023-05-09T10:55:15;101189.16;;;20.74;nan
70758;BME280;59316;52.964;7.102;2023-05-09T11:00:40;101166.41;;;20.89;nan
70758;BME280;59316;52.964;7.102;2023-05-09T11:06:02;101162.03;;;20.98;nan
70758;BME280;59316;52.964;7.102;2023-05-09T11:11:23;101165.34;;;21.18;nan
70758;BME280;59316;52.964;7.102;2023-05-09T11:16:59;101145.59;;;21.03;nan
70758;BME280;59316;52.964;7.102;2023-05-09T11:22:29;101142.34;;;21.09;nan
70758;BME280;59316;52.964;7.102;2023-05-09T11:27:57;101141.41;;;21.62;nan
70758;BME280;59316;52.964;7.102;2023-05-09T11:33:27;101123.00;;;22.46;nan
70758;BME280;59316;52.964;7.102;2023-05-09T11:38:59;101108.38;;;23.41;nan
70758;BME280;59316;52.964;7.102;2023-05-09T11:44:27;101097.59;;;24.22;nan
70758;BME280;59316;52.964;7.102;2023-05-09T11:49:49;101083.66;;;24.44;nan
70758;BME280;59316;52.964;7.102;2023-05-09T11:55:12;101066.00;;;24.81;nan
70758;BME280;59316;52.964;7.102;2023-05-09T12:00:35;101065.97;;;25.04;nan
70758;BME280;59316;52.964;7.102;2023-05-09T12:06:04;101058.66;;;23.97;nan
70758;BME280;59316;52.964;7.102;2023-05-09T12:11:28;101055.69;;;23.91;nan
70758;BME280;59316;52.964;7.102;2023-05-09T12:16:50;101038.50;;;23.38;nan
70758;BME280;59316;52.964;7.102;2023-05-09T12:22:11;101035.91;;;22.97;nan
70758;BME280;59316;52.964;7.102;2023-05-09T12:27:38;101032.72;;;22.43;nan
70758;BME280;59316;52.964;7.102;2023-05-09T12:33:00;101030.97;;;22.01;nan
70758;BME280;59316;52.964;7.102;2023-05-09T12:38:22;101024.03;;;21.74;nan
70758;BME280;59316;52.964;7.102;2023-05-09T12:43:47;101020.94;;;21.52;nan
70758;BME280;59316;52.964;7.102;2023-05-09T12:49:19;101030.09;;;20.97;nan
70758;BME280;59316;52.964;7.102;2023-05-09T12:54:45;101029.81;;;20.46;nan
70758;BME280;59316;52.964;7.102;2023-05-09T13:00:08;101047.28;;;19.93;nan
70758;BME280;59316;52.964;7.102;2023-05-09T13:05:30;101043.72;;;19.46;nan
70758;BME280;59316;52.964;7.102;2023-05-09T13:10:52;101039.75;;;19.23;nan
70758;BME280;59316;52.964;7.102;2023-05-09T13:16:23;101046.34;;;19.09;nan
70758;BME280;59316;52.964;7.102;2023-05-09T13:21:45;101022.59;;;19.07;nan
70758;BME280;59316;52.964;7.102;2023-05-09T13:27:06;101013.44;;;19.01;nan
70758;BME280;59316;52.964;7.102;2023-05-09T13:32:28;100990.28;;;18.94;nan
70758;BME280;59316;52.964;7.102;2023-05-09T13:37:50;100974.53;;;18.92;nan
70758;BME280;59316;52.964;7.102;2023-05-09T13:43:11;100959.47;;;18.83;nan
70758;BME280;59316;52.964;7.102;2023-05-09T13:48:33;100946.38;;;18.91;nan
70758;BME280;59316;52.964;7.102;2023-05-09T13:53:54;100957.69;;;19.31;nan
70758;BME280;59316;52.964;7.102;2023-05-09T13:59:16;100956.22;;;19.46;nan
70758;BME280;59316;52.964;7.102;2023-05-09T14:04:38;100958.50;;;19.31;nan
70758;BME280;59316;52.964;7.102;2023-05-09T14:09:59;100954.69;;;19.44;nan
70758;BME280;59316;52.964;7.102;2023-05-09T14:15:31;100953.72;;;19.45;nan
70758;BME280;59316;52.964;7.102;2023-05-09T14:20:52;100942.59;;;19.31;nan
70758;BME280;59316;52.964;7.102;2023-05-09T14:26:14;100926.03;;;19.57;nan
70758;BME280;59316;52.964;7.102;2023-05-09T14:31:36;100929.84;;;19.73;nan
70758;BME280;59316;52.964;7.102;2023-05-09T14:36:57;100911.34;;;19.81;nan
70758;BME280;59316;52.964;7.102;2023-05-09T14:42:19;100913.13;;;20.08;nan
70758;BME280;59316;52.964;7.102;2023-05-09T14:47:40;100904.91;;;20.01;nan
70758;BME280;59316;52.964;7.102;2023-05-09T14:53:02;100914.72;;;19.73;nan
70758;BME280;59316;52.964;7.102;2023-05-09T14:58:23;100916.63;;;19.63;nan
70758;BME280;59316;52.964;7.102;2023-05-09T15:03:45;100908.22;;;19.67;nan
70758;BME280;59316;52.964;7.102;2023-05-09T15:09:07;100906.63;;;19.75;nan
70758;BME280;59316;52.964;7.102;2023-05-09T15:14:30;100909.03;;;19.96;nan
70758;BME280;59316;52.964;7.102;2023-05-09T15:19:51;100902.47;;;19.90;nan
70758;BME280;59316;52.964;7.102;2023-05-09T15:25:14;100898.94;;;19.99;nan
70758;BME280;59316;52.964;7.102;2023-05-09T15:30:36;100905.28;;;19.89;nan
70758;BME280;59316;52.964;7.102;2023-05-09T15:35:58;100894.25;;;19.93;nan
70758;BME280;59316;52.964;7.102;2023-05-09T15:41:19;100903.97;;;19.93;nan
70758;BME280;59316;52.964;7.102;2023-05-09T15:46:41;100900.91;;;19.97;nan
70758;BME280;59316;52.964;7.102;2023-05-09T15:52:03;100893.31;;;20.02;nan
70758;BME280;59316;52.964;7.102;2023-05-09T15:57:26;100878.44;;;19.92;nan
70758;BME280;59316;52.964;7.102;2023-05-09T16:02:47;100872.75;;;19.87;nan
70758;BME280;59316;52.964;7.102;2023-05-09T16:08:09;100860.47;;;19.67;nan
70758;BME280;59316;52.964;7.102;2023-05-09T16:13:30;100871.34;;;19.18;nan
70758;BME280;59316;52.964;7.102;2023-05-09T16:18:54;100875.44;;;19.13;nan
70758;BME280;59316;52.964;7.102;2023-05-09T16:24:15;100876.31;;;19.03;nan
70758;BME280;59316;52.964;7.102;2023-05-09T16:29:37;100867.28;;;18.86;nan
70758;BME280;59316;52.964;7.102;2023-05-09T16:34:58;100869.81;;;18.88;nan
70758;BME280;59316;52.964;7.102;2023-05-09T16:40:20;100869.03;;;18.58;nan
70758;BME280;59316;52.964;7.102;2023-05-09T16:45:41;100852.09;;;18.31;nan
70758;BME280;59316;52.964;7.102;2023-05-09T16:51:03;100856.72;;;18.19;nan
70758;BME280;59316;52.964;7.102;2023-05-09T16:56:25;100850.84;;;18.16;nan
70758;BME280;59316;52.964;7.102;2023-05-09T17:01:46;100858.38;;;18.20;nan
70758;BME280;59316;52.964;7.102;2023-05-09T17:07:08;100838.63;;;18.05;nan
70758;BME280;59316;52.964;7.102;2023-05-09T17:12:29;100853.91;;;18.11;nan
70758;BME280;59316;52.964;7.102;2023-05-09T17:17:51;100840.00;;;18.09;nan
70758;BME280;59316;52.964;7.102;2023-05-09T17:23:13;100847.53;;;18.04;nan
70758;BME280;59316;52.964;7.102;2023-05-09T17:28:34;100834.31;;;18.04;nan
70758;BME280;59316;52.964;7.102;2023-05-09T17:33:56;100828.31;;;18.02;nan
70758;BME280;59316;52.964;7.102;2023-05-09T17:39:17;100823.56;;;17.96;nan
70758;BME280;59316;52.964;7.102;2023-05-09T17:44:39;100809.81;;;17.92;nan
70758;BME280;59316;52.964;7.102;2023-05-09T17:50:02;100811.84;;;17.79;nan
70758;BME280;59316;52.964;7.102;2023-05-09T17:55:24;100809.66;;;17.84;nan
70758;BME280;59316;52.964;7.102;2023-05-09T18:00:45;100807.38;;;17.79;nan
70758;BME280;59316;52.964;7.102;2023-05-09T18:06:07;100800.56;;;17.77;nan
70758;BME280;59316;52.964;7.102;2023-05-09T18:11:28;100796.69;;;17.71;nan
70758;BME280;59316;52.964;7.102;2023-05-09T18:16:50;100796.25;;;17.66;nan
70758;BME280;59316;52.964;7.102;2023-05-09T18:22:11;100795.03;;;17.60;nan
70758;BME280;59316;52.964;7.102;2023-05-09T18:27:33;100794.59;;;17.55;nan
70758;BME280;59316;52.964;7.102;2023-05-09T18:32:55;100797.78;;;17.49;nan
70758;BME280;59316;52.964;7.102;2023-05-09T18:38:16;100792.63;;;17.37;nan
70758;BME280;59316;52.964;7.102;2023-05-09T18:43:41;100795.00;;;17.31;nan
70758;BME280;59316;52.964;7.102;2023-05-09T18:49:02;100797.50;;;17.32;nan
70758;BME280;59316;52.964;7.102;2023-05-09T18:54:24;100801.66;;;16.84;nan
70758;BME280;59316;52.964;7.102;2023-05-09T18:59:45;100792.63;;;16.77;nan
70758;BME280;59316;52.964;7.102;2023-05-09T19:05:08;100795.81;;;16.81;nan
70758;BME280;59316;52.964;7.102;2023-05-09T19:10:30;100804.81;;;16.68;nan
70758;BME280;59316;52.964;7.102;2023-05-09T19:15:51;100798.63;;;16.58;nan
70758;BME280;59316;52.964;7.102;2023-05-09T19:21:13;100802.34;;;16.55;nan
70758;BME280;59316;52.964;7.102;2023-05-09T19:26:35;100810.09;;;16.47;nan
70758;BME280;59316;52.964;7.102;2023-05-09T19:31:56;100807.75;;;16.54;nan
70758;BME280;59316;52.964;7.102;2023-05-09T19:37:17;100812.19;;;16.53;nan
70758;BME280;59316;52.964;7.102;2023-05-09T19:42:39;100794.09;;;16.49;nan
70758;BME280;59316;52.964;7.102;2023-05-09T19:48:00;100795.09;;;16.48;nan
70758;BME280;59316;52.964;7.102;2023-05-09T19:53:22;100799.81;;;16.54;nan
70758;BME280;59316;52.964;7.102;2023-05-09T19:58:44;100800.69;;;16.54;nan
70758;BME280;59316;52.964;7.102;2023-05-09T20:04:05;100805.69;;;16.57;nan
70758;BME280;59316;52.964;7.102;2023-05-09T20:09:27;100798.81;;;16.66;nan
70758;BME280;59316;52.964;7.102;2023-05-09T20:14:49;100794.94;;;16.70;nan
70758;BME280;59316;52.964;7.102;2023-05-09T20:20:10;100790.06;;;16.66;nan
70758;BME280;59316;52.964;7.102;2023-05-09T20:25:32;100775.75;;;16.68;nan
70758;BME280;59316;52.964;7.102;2023-05-09T20:30:54;100785.53;;;16.78;nan
70758;BME280;59316;52.964;7.102;2023-05-09T20:36:16;100781.88;;;16.69;nan
70758;BME280;59316;52.964;7.102;2023-05-09T20:41:37;100785.63;;;16.66;nan
70758;BME280;59316;52.964;7.102;2023-05-09T20:46:59;100782.63;;;16.59;nan
70758;BME280;59316;52.964;7.102;2023-05-09T20:52:20;100779.44;;;16.56;nan
70758;BME280;59316;52.964;7.102;2023-05-09T20:57:42;100777.59;;;16.56;nan
70758;BME280;59316;52.964;7.102;2023-05-09T21:03:03;100769.59;;;16.58;nan
70758;BME280;59316;52.964;7.102;2023-05-09T21:08:25;100775.09;;;16.55;nan
70758;BME280;59316;52.964;7.102;2023-05-09T21:13:46;100769.69;;;16.56;nan
70758;BME280;59316;52.964;7.102;2023-05-09T21:19:08;100768.81;;;16.46;nan
70758;BME280;59316;52.964;7.102;2023-05-09T21:24:29;100770.34;;;16.49;nan
70758;BME280;59316;52.964;7.102;2023-05-09T21:29:51;100761.44;;;16.40;nan
70758;BME280;59316;52.964;7.102;2023-05-09T21:35:12;100760.59;;;16.39;nan
70758;BME280;59316;52.964;7.102;2023-05-09T21:40:34;100750.44;;;16.35;nan
70758;BME280;59316;52.964;7.102;2023-05-09T21:45:55;100751.41;;;16.34;nan
70758;BME280;59316;52.964;7.102;2023-05-09T21:51:17;100754.38;;;16.19;nan
70758;BME280;59316;52.964;7.102;2023-05-09T21:56:38;100743.78;;;16.09;nan
70758;BME280;59316;52.964;7.102;2023-05-09T22:02:00;100737.84;;;16.17;nan
70758;BME280;59316;52.964;7.102;2023-05-09T22:07:21;100741.59;;;16.15;nan
70758;BME280;59316;52.964;7.102;2023-05-09T22:12:43;100741.06;;;16.21;nan
70758;BME280;59316;52.964;7.102;2023-05-09T22:18:04;100730.97;;;16.26;nan
70758;BME280;59316;52.964;7.102;2023-05-09T22:23:26;100733.81;;;16.13;nan
70758;BME280;59316;52.964;7.102;2023-05-09T22:28:48;100724.78;;;16.16;nan
70758;BME280;59316;52.964;7.102;2023-05-09T22:34:09;100727.09;;;16.09;nan
70758;BME280;59316;52.964;7.102;2023-05-09T22:39:31;100732.56;;;16.17;nan
70758;BME280;59316;52.964;7.102;2023-05-09T22:44:52;100725.31;;;16.09;nan
70758;BME280;59316;52.964;7.102;2023-05-09T22:50:14;100724.28;;;16.01;nan
70758;BME280;59316;52.964;7.102;2023-05-09T22:55:35;100710.66;;;15.96;nan
70758;BME280;59316;52.964;7.102;2023-05-09T23:00:57;100720.88;;;15.89;nan
70758;BME280;59316;52.964;7.102;2023-05-09T23:06:19;100713.72;;;15.80;nan
70758;BME280;59316;52.964;7.102;2023-05-09T23:11:40;100720.28;;;15.64;nan
70758;BME280;59316;52.964;7.102;2023-05-09T23:17:02;100713.28;;;15.74;nan
70758;BME280;59316;52.964;7.102;2023-05-09T23:22:23;100719.41;;;15.75;nan
70758;BME280;59316;52.964;7.102;2023-05-09T23:27:45;100710.47;;;15.66;nan
70758;BME280;59316;52.964;7.102;2023-05-09T23:33:06;100700.38;;;15.71;nan
70758;BME280;59316;52.964;7.102;2023-05-09T23:38:28;100705.28;;;15.76;nan
70758;BME280;59316;52.964;7.102;2023-05-09T23:43:49;100693.28;;;15.72;nan
70758;BME280;59316;52.964;7.102;2023-05-09T23:49:11;100689.63;;;15.84;nan
70758;BME280;59316;52.964;7.102;2023-05-09T23:54:32;100696.31;;;15.88;nan
70758;BME280;59316;52.964;7.102;2023-05-09T23:59:54;100692.84;;;15.88;nan
